首页
METAR-TAF:

METAR-TAF

机场 :

Vidalia Regional Airport

Vidalia, 喬治亞, 美国

纬度: 32-11-33N, 经度: 082-22-19W, 海拔: 84米

当前天气观测

该预报发布于29分钟前的00:15 UTC
风速8节,风向东北,有时为14节阵风
温度 23°C
湿度 83%
气压 1016 hPa
能見度: 11.3公里
散云层高于1600英尺
多云层高于2500英尺
阴天层高于4400英尺

METAR: KVDI 270015Z AUTO 05008G14KT 7SM SCT016 BKN025 OVC044 23/20 A2999 RMK AO2

时间: 20:44 (00:44 UTC)


TAF: 丢失

超过4000个机场的气象观测和天气预报(METAR&TAF报告)。

可查询的气象台以黄色和红色小点在地图上表示。

将鼠标移到小点上方,可查看气象台名称。

然后点击查看天气观测和预报。

如需切换地图:点击带黑十字的绿色按钮放大地图;点击带横线的绿色按钮缩小地图;或者点击绿色箭头查看邻近地区的地图。


METAR-TAF: